Time;durP1;ratioP1;P1;durP2;ratioP2;P2;SDS_P1;SDS_P2;PMS_P1;PMS_P2;Temp;Humidity;BMP_temperature;BMP_pressure;BME280_temperature;BME280_humidity;BME280_pressure;Samples;Min_cycle;Max_cycle;Signal;HPM_P1;HPM_P2
2024/04/05 00:00:41;;;;;;;1.77;1.30;;;11.30;99.90;;;;;;5049977;28;20633;-75
2024/04/05 00:03:07;;;;;;;1.75;1.48;;;11.30;99.90;;;;;;5049618;28;20221;-74
2024/04/05 00:05:34;;;;;;;1.70;1.30;;;11.30;99.90;;;;;;5058443;22;20216;-91
2024/04/05 00:08:01;;;;;;;1.40;1.30;;;11.30;99.90;;;;;;5039747;28;20461;-92
2024/04/05 00:10:28;;;;;;;4.38;1.70;;;11.30;99.90;;;;;;5048535;28;20205;-92
2024/04/05 00:12:53;;;;;;;3.00;1.50;;;11.30;99.90;;;;;;5050216;28;20229;-92
2024/04/05 00:15:20;;;;;;;3.47;1.50;;;11.30;99.90;;;;;;5050183;28;20197;-92
2024/04/05 00:17:46;;;;;;;1.73;1.40;;;11.30;99.90;;;;;;5063729;28;20201;-93
2024/04/05 00:20:13;;;;;;;1.63;1.47;;;11.30;99.90;;;;;;5047377;28;20261;-92
2024/04/05 00:22:39;;;;;;;1.55;1.23;;;11.30;99.90;;;;;;5047363;28;21019;-92
2024/04/05 00:25:07;;;;;;;2.37;1.40;;;11.30;99.90;;;;;;5052504;28;20198;-92
2024/04/05 00:27:33;;;;;;;2.90;1.52;;;11.30;99.90;;;;;;5050078;28;20201;-92
2024/04/05 00:30:02;;;;;;;1.92;1.30;;;11.30;99.90;;;;;;5050152;28;20206;-92
2024/04/05 00:32:28;;;;;;;2.38;1.27;;;11.30;99.90;;;;;;5052165;28;20228;-92
2024/04/05 00:34:54;;;;;;;2.75;1.42;;;11.30;99.90;;;;;;5050509;28;20202;-92
2024/04/05 00:37:21;;;;;;;4.23;1.53;;;11.40;99.90;;;;;;5053677;28;20203;-92
2024/04/05 00:39:47;;;;;;;1.30;1.20;;;11.40;99.90;;;;;;5052452;28;20224;-93
2024/04/05 00:42:15;;;;;;;2.00;1.50;;;11.40;99.90;;;;;;5046375;28;20233;-92
2024/04/05 00:44:40;;;;;;;1.75;1.20;;;11.40;99.90;;;;;;5059016;28;20216;-92
2024/04/05 00:47:08;;;;;;;3.60;1.50;;;11.40;99.90;;;;;;5061586;28;20202;-92
2024/04/05 00:49:34;;;;;;;1.50;1.33;;;11.40;99.90;;;;;;5062490;28;20209;-92
2024/04/05 00:52:03;;;;;;;1.50;1.20;;;11.30;99.90;;;;;;5055076;28;20308;-92
2024/04/05 00:54:29;;;;;;;1.90;1.30;;;11.30;99.90;;;;;;5053968;28;20851;-93
2024/04/05 00:56:57;;;;;;;1.57;1.30;;;11.30;99.90;;;;;;5051512;28;20207;-92
2024/04/05 00:59:26;;;;;;;1.13;1.02;;;11.20;99.90;;;;;;5063032;28;20446;-92
2024/04/05 01:01:53;;;;;;;1.70;1.33;;;11.20;99.90;;;;;;5058165;28;20206;-92
2024/04/05 01:04:19;;;;;;;2.97;1.40;;;11.20;99.90;;;;;;5064114;28;20211;-93
2024/04/05 01:06:47;;;;;;;2.43;1.37;;;11.20;99.90;;;;;;5039312;28;20230;-92
2024/04/05 01:09:13;;;;;;;1.20;1.10;;;11.20;99.90;;;;;;5035376;28;20464;-92
2024/04/05 01:11:39;;;;;;;1.80;1.50;;;11.20;99.90;;;;;;5051304;28;20229;-92
2024/04/05 01:14:05;;;;;;;3.03;1.63;;;11.20;99.90;;;;;;5026106;28;20206;-92
2024/04/05 01:16:33;;;;;;;1.83;1.17;;;11.20;99.90;;;;;;5037010;28;20663;-92
2024/04/05 01:18:59;;;;;;;2.28;1.45;;;11.20;99.90;;;;;;5041134;28;20212;-92
2024/04/05 01:21:26;;;;;;;1.10;1.00;;;11.20;99.90;;;;;;5057851;28;20205;-92
2024/04/05 01:23:54;;;;;;;1.80;1.27;;;11.20;99.90;;;;;;5051205;28;20247;-92
2024/04/05 01:26:21;;;;;;;1.35;1.13;;;11.20;99.90;;;;;;5033657;28;20209;-91
2024/04/05 01:28:48;;;;;;;1.20;1.10;;;11.20;99.90;;;;;;5035956;28;20214;-92
2024/04/05 01:31:14;;;;;;;3.60;1.10;;;11.20;99.90;;;;;;5034437;28;20214;-92
2024/04/05 01:33:40;;;;;;;1.87;1.60;;;11.20;99.90;;;;;;5040201;28;20217;-92
2024/04/05 01:36:06;;;;;;;2.20;1.38;;;11.20;99.90;;;;;;5039451;28;20202;-92
2024/04/05 01:38:33;;;;;;;3.40;1.73;;;11.20;99.90;;;;;;5041361;28;20204;-92
2024/04/05 01:41:00;;;;;;;1.45;1.30;;;11.20;99.90;;;;;;5040652;28;20198;-92
2024/04/05 01:43:27;;;;;;;2.20;1.42;;;11.20;99.90;;;;;;5033747;28;20227;-91
2024/04/05 01:45:53;;;;;;;1.58;1.40;;;11.20;99.90;;;;;;5038646;28;20225;-92
2024/04/05 01:48:20;;;;;;;1.50;1.20;;;11.10;99.90;;;;;;5038900;28;20581;-91
2024/04/05 01:50:46;;;;;;;1.30;1.20;;;11.10;99.90;;;;;;5039049;28;20214;-92
2024/04/05 01:53:12;;;;;;;1.90;1.33;;;11.10;99.90;;;;;;5036634;28;20301;-92
2024/04/05 01:55:38;;;;;;;2.45;1.50;;;11.00;99.90;;;;;;5039578;28;20217;-92
2024/04/05 01:58:10;;;;;;;9.10;2.30;;;10.90;99.90;;;;;;5028952;28;20194;-92
2024/04/05 02:00:36;;;;;;;1.80;1.35;;;10.90;99.90;;;;;;5038851;28;20238;-92
2024/04/05 02:03:03;;;;;;;2.37;1.27;;;10.80;99.90;;;;;;5042973;28;20229;-92
2024/04/05 02:05:29;;;;;;;1.80;1.30;;;10.80;99.90;;;;;;5048451;28;20458;-92
2024/04/05 02:07:56;;;;;;;1.50;1.40;;;10.70;99.90;;;;;;5059323;28;20205;-93
2024/04/05 02:10:21;;;;;;;2.25;1.40;;;10.70;99.90;;;;;;5051185;28;20212;-92
2024/04/05 02:12:48;;;;;;;1.60;1.20;;;10.70;99.90;;;;;;5060632;28;20718;-93
2024/04/05 02:15:15;;;;;;;1.80;1.65;;;10.70;99.90;;;;;;5062576;28;20465;-93
2024/04/05 02:17:42;;;;;;;3.10;1.95;;;10.70;99.90;;;;;;5050520;28;20237;-93
2024/04/05 02:20:09;;;;;;;3.20;1.55;;;10.70;99.90;;;;;;5042759;28;20220;-93
2024/04/05 02:22:35;;;;;;;1.27;1.17;;;10.60;99.90;;;;;;5050772;28;20229;-93
2024/04/05 02:25:01;;;;;;;1.40;1.20;;;10.60;99.90;;;;;;5052837;28;20206;-93
2024/04/05 02:27:28;;;;;;;1.70;1.23;;;10.60;99.90;;;;;;5057914;28;20201;-93
2024/04/05 02:29:54;;;;;;;1.58;1.33;;;10.60;99.90;;;;;;5057042;28;20232;-92
2024/04/05 02:32:23;;;;;;;1.20;1.10;;;10.50;99.90;;;;;;5045114;28;20220;-92
2024/04/05 02:34:48;;;;;;;1.77;1.50;;;10.50;99.90;;;;;;5055848;28;20202;-93
2024/04/05 02:37:15;;;;;;;1.77;1.30;;;10.50;99.90;;;;;;5061796;28;20210;-93
2024/04/05 02:39:41;;;;;;;3.83;1.50;;;10.50;99.90;;;;;;5053491;28;20206;-92
2024/04/05 02:42:07;;;;;;;1.97;1.77;;;10.40;99.90;;;;;;5061032;28;20289;-91
2024/04/05 02:44:33;;;;;;;2.00;1.38;;;10.40;99.90;;;;;;5069993;28;20209;-92
2024/04/05 02:47:00;;;;;;;2.10;1.50;;;10.30;99.90;;;;;;5074815;28;20223;-93
2024/04/05 02:49:27;;;;;;;2.42;1.63;;;10.30;99.90;;;;;;5078492;28;20197;-93
2024/04/05 02:51:54;;;;;;;1.27;1.17;;;10.30;99.90;;;;;;5050532;28;20275;-93
2024/04/05 02:54:19;;;;;;;1.50;1.40;;;10.20;99.90;;;;;;5028249;28;20579;-93
2024/04/05 02:56:46;;;;;;;2.13;1.23;;;10.20;99.90;;;;;;5042216;28;20288;-93
2024/04/05 02:59:12;;;;;;;2.13;1.15;;;10.10;99.90;;;;;;5058225;28;20201;-92
2024/04/05 03:01:39;;;;;;;1.63;1.53;;;10.10;99.90;;;;;;5057496;28;20231;-93
2024/04/05 03:04:04;;;;;;;2.17;1.50;;;10.10;99.90;;;;;;5057473;28;20225;-93
2024/04/05 03:06:33;;;;;;;2.43;1.80;;;10.10;99.90;;;;;;5056851;28;20324;-93
2024/04/05 03:08:59;;;;;;;2.60;1.80;;;10.10;99.90;;;;;;5055824;28;20205;-93
2024/04/05 03:11:25;;;;;;;3.20;2.03;;;10.10;99.90;;;;;;5049112;28;20207;-93
2024/04/05 03:13:51;;;;;;;5.10;2.58;;;10.10;99.90;;;;;;5056508;28;20222;-91
2024/04/05 03:16:18;;;;;;;2.70;2.13;;;10.00;99.90;;;;;;5058206;28;20291;-94
2024/04/05 03:18:44;;;;;;;1.63;1.52;;;10.00;99.90;;;;;;5058136;28;20208;-92
2024/04/05 03:21:11;;;;;;;3.20;1.50;;;10.00;99.90;;;;;;5057130;28;20219;-92
2024/04/05 03:23:38;;;;;;;1.88;1.40;;;9.90;99.90;;;;;;5042754;28;20225;-92
2024/04/05 03:26:05;;;;;;;1.20;1.10;;;9.90;99.90;;;;;;5039283;28;20296;-93
2024/04/05 03:28:30;;;;;;;1.40;1.17;;;9.90;99.90;;;;;;5053801;28;20209;-93
2024/04/05 03:30:58;;;;;;;2.10;1.30;;;9.90;99.90;;;;;;5051165;28;20213;-93
2024/04/05 03:33:24;;;;;;;1.90;1.70;;;9.90;99.90;;;;;;5059412;28;20232;-93
2024/04/05 03:35:52;;;;;;;1.20;1.10;;;9.80;99.90;;;;;;5034778;28;20199;-93
2024/04/05 03:38:18;;;;;;;1.30;1.20;;;9.80;99.90;;;;;;5053490;28;20205;-94
2024/04/05 03:40:47;;;;;;;1.42;1.25;;;9.80;99.90;;;;;;5042346;28;20214;-93
2024/04/05 03:43:13;;;;;;;1.42;1.33;;;9.80;99.90;;;;;;5042362;28;20253;-93
2024/04/05 03:45:39;;;;;;;1.30;1.20;;;9.90;99.90;;;;;;5041627;28;20213;-93
2024/04/05 03:48:07;;;;;;;1.63;1.30;;;9.90;99.90;;;;;;5060327;28;20205;-93
2024/04/05 03:50:33;;;;;;;1.20;1.10;;;9.80;99.90;;;;;;5056185;28;20210;-92
2024/04/05 03:52:59;;;;;;;1.50;1.40;;;9.80;99.90;;;;;;5050276;28;20726;-94
2024/04/05 03:55:25;;;;;;;1.50;1.40;;;9.80;99.90;;;;;;5041637;28;20825;-93
2024/04/05 03:57:53;;;;;;;1.43;1.33;;;9.80;99.90;;;;;;5042838;28;20208;-94
2024/04/05 04:00:19;;;;;;;2.30;1.25;;;9.80;99.90;;;;;;5042852;28;20213;-93
2024/04/05 04:02:46;;;;;;;1.63;1.50;;;9.80;99.90;;;;;;5042928;28;20312;-93
2024/04/05 04:05:11;;;;;;;1.45;1.20;;;9.80;99.90;;;;;;5039890;28;20289;-92
2024/04/05 04:07:38;;;;;;;2.57;1.50;;;9.80;99.90;;;;;;5038375;28;20232;-94
2024/04/05 04:10:05;;;;;;;1.27;1.17;;;9.80;99.90;;;;;;5047012;28;20221;-93
2024/04/05 04:12:32;;;;;;;2.00;1.50;;;9.70;99.90;;;;;;5065284;28;20272;-93
2024/04/05 04:14:59;;;;;;;1.55;1.45;;;9.70;99.90;;;;;;5059012;28;20644;-94
2024/04/05 04:17:26;;;;;;;1.40;1.30;;;9.70;99.90;;;;;;5068621;28;20235;-93
2024/04/05 04:19:52;;;;;;;2.10;1.40;;;9.70;99.90;;;;;;5062482;28;20202;-93
2024/04/05 04:22:19;;;;;;;1.50;1.40;;;9.70;99.90;;;;;;5051229;28;20248;-93
2024/04/05 04:24:45;;;;;;;3.30;1.45;;;9.70;99.90;;;;;;5061492;28;20491;-93
2024/04/05 04:27:12;;;;;;;1.70;1.40;;;9.70;99.90;;;;;;5065551;28;20226;-93
2024/04/05 04:29:39;;;;;;;1.90;1.45;;;9.70;99.90;;;;;;5057436;28;20206;-93
2024/04/05 04:32:07;;;;;;;2.80;2.10;;;9.70;99.90;;;;;;5047441;28;20226;-93
2024/04/05 04:34:34;;;;;;;2.30;1.60;;;9.60;99.90;;;;;;5042388;28;20222;-93
2024/04/05 04:37:00;;;;;;;1.40;1.30;;;9.60;99.90;;;;;;5040875;28;20208;-93
2024/04/05 04:39:26;;;;;;;1.50;1.38;;;9.70;99.90;;;;;;5046815;28;20201;-93
2024/04/05 04:41:54;;;;;;;1.83;1.33;;;9.60;99.90;;;;;;5062079;28;20709;-93
2024/04/05 04:44:21;;;;;;;1.40;1.30;;;9.60;99.90;;;;;;5064842;28;20297;-92
2024/04/05 04:46:48;;;;;;;1.70;1.60;;;9.60;99.90;;;;;;5058452;28;20211;-94
2024/04/05 04:49:15;;;;;;;4.22;2.38;;;9.60;99.90;;;;;;5060468;28;20579;-93
2024/04/05 04:51:46;;;;;;;3.55;1.80;;;9.60;99.90;;;;;;5062383;28;20225;-93
2024/04/05 04:54:13;;;;;;;1.52;1.17;;;9.60;99.90;;;;;;5052088;28;20202;-92
2024/04/05 04:56:41;;;;;;;2.30;1.48;;;9.60;99.90;;;;;;5058011;28;20202;-93
2024/04/05 04:59:08;;;;;;;1.55;1.45;;;9.60;99.90;;;;;;5070322;28;20205;-93
2024/04/05 05:01:35;;;;;;;2.83;1.80;;;9.50;99.90;;;;;;5071994;28;20189;-93
2024/04/05 05:04:04;;;;;;;2.30;1.90;;;9.50;99.90;;;;;;5060392;28;20241;-93
2024/04/05 05:06:33;;;;;;;3.45;1.60;;;9.50;99.90;;;;;;5054924;28;20213;-93
2024/04/05 05:08:58;;;;;;;1.80;1.70;;;9.50;99.90;;;;;;5074226;28;20205;-92
2024/04/05 05:11:25;;;;;;;2.57;2.10;;;9.50;99.90;;;;;;5075752;28;20205;-92
2024/04/05 05:13:51;;;;;;;2.45;1.88;;;9.50;99.90;;;;;;5067288;28;20210;-92
2024/04/05 05:16:18;;;;;;;2.90;1.40;;;9.50;99.90;;;;;;5066209;28;20234;-92
2024/04/05 05:18:44;;;;;;;2.50;2.10;;;9.50;99.90;;;;;;5072832;28;20443;-93
2024/04/05 05:21:11;;;;;;;2.53;1.90;;;9.40;99.90;;;;;;5071899;28;20213;-92
2024/04/05 05:23:38;;;;;;;1.95;1.60;;;9.40;99.90;;;;;;5056283;28;20226;-92
2024/04/05 05:26:06;;;;;;;4.10;2.13;;;9.40;99.90;;;;;;5044377;28;20236;-93
2024/04/05 05:28:32;;;;;;;1.95;1.65;;;9.40;99.90;;;;;;5053201;28;20665;-94
2024/04/05 05:30:59;;;;;;;2.83;2.27;;;9.40;99.90;;;;;;5068466;28;20212;-94
2024/04/05 05:33:25;;;;;;;1.92;1.60;;;9.40;99.90;;;;;;5079965;22;20494;-75
2024/04/05 05:35:51;;;;;;;2.60;1.57;;;9.40;99.90;;;;;;5064173;28;20209;-75
2024/04/05 05:38:17;;;;;;;2.00;1.60;;;9.40;99.90;;;;;;5059143;28;20577;-76
2024/04/05 05:40:46;;;;;;;1.90;1.70;;;9.40;99.90;;;;;;5050986;28;20208;-75
2024/04/05 05:43:11;;;;;;;1.50;1.40;;;9.40;99.90;;;;;;5050948;28;20236;-75
2024/04/05 05:45:38;;;;;;;2.20;1.93;;;9.50;99.90;;;;;;5051167;28;20612;-75
2024/04/05 05:48:04;;;;;;;2.22;2.03;;;9.60;99.90;;;;;;5051242;28;20245;-75
2024/04/05 05:50:31;;;;;;;1.67;1.58;;;9.60;99.90;;;;;;5051714;28;20210;-75
2024/04/05 05:52:57;;;;;;;2.50;2.03;;;9.60;99.90;;;;;;5051578;28;20205;-75
2024/04/05 05:55:24;;;;;;;1.50;1.40;;;9.70;99.90;;;;;;5051801;28;20223;-76
2024/04/05 05:57:51;;;;;;;1.95;1.75;;;9.70;99.90;;;;;;5051567;28;20511;-74
2024/04/05 06:00:18;;;;;;;6.07;1.90;;;9.80;99.90;;;;;;5051589;28;20292;-75
2024/04/05 06:02:44;;;;;;;4.78;2.03;;;9.90;99.90;;;;;;5051372;28;20232;-74
2024/04/05 06:05:12;;;;;;;2.00;1.60;;;10.00;99.90;;;;;;5050418;28;20654;-75
2024/04/05 06:07:38;;;;;;;3.15;1.90;;;10.10;99.90;;;;;;5051240;28;20225;-77
2024/04/05 06:10:05;;;;;;;2.33;2.13;;;10.20;99.90;;;;;;5051686;28;20197;-77
2024/04/05 06:12:35;;;;;;;2.40;1.77;;;10.40;99.90;;;;;;5051176;28;20374;-77
2024/04/05 06:15:04;;;;;;;2.40;1.95;;;10.50;99.90;;;;;;5050929;28;20193;-76
2024/04/05 06:17:34;;;;;;;1.63;1.45;;;10.60;99.90;;;;;;5051048;28;20768;-77
2024/04/05 06:20:00;;;;;;;1.92;1.73;;;10.70;99.90;;;;;;5051221;28;20220;-78
2024/04/05 06:22:27;;;;;;;3.65;1.75;;;10.70;99.90;;;;;;5051074;28;20212;-77
2024/04/05 06:24:54;;;;;;;4.63;1.95;;;10.80;99.90;;;;;;5044605;28;20767;-79
2024/04/05 06:27:21;;;;;;;2.53;1.60;;;10.90;99.90;;;;;;5051110;28;20232;-78
2024/04/05 06:29:49;;;;;;;2.55;1.48;;;11.10;99.90;;;;;;5051011;28;20254;-77
2024/04/05 06:32:17;;;;;;;2.10;1.50;;;11.20;99.90;;;;;;5050858;28;20662;-77
2024/04/05 06:34:44;;;;;;;2.55;1.90;;;11.40;99.90;;;;;;5050479;28;20205;-77
2024/04/05 06:37:10;;;;;;;2.22;1.38;;;11.60;99.90;;;;;;5050528;28;20232;-77
2024/04/05 06:39:37;;;;;;;2.88;1.70;;;11.80;99.90;;;;;;5050876;28;20724;-77
2024/04/05 06:42:04;;;;;;;1.70;1.33;;;12.10;99.90;;;;;;5050400;28;20212;-78
2024/04/05 06:44:35;;;;;;;1.63;1.50;;;12.40;99.90;;;;;;5050612;28;20255;-77
2024/04/05 06:47:03;;;;;;;1.77;1.20;;;12.60;99.90;;;;;;5050829;28;20221;-77
2024/04/05 06:49:32;;;;;;;3.73;1.50;;;12.90;99.90;;;;;;5050791;28;20554;-77
2024/04/05 06:51:58;;;;;;;1.73;1.20;;;13.10;99.90;;;;;;5050788;28;20498;-77
2024/04/05 06:54:24;;;;;;;1.47;1.37;;;13.30;99.90;;;;;;5050327;28;20225;-77
2024/04/05 06:56:50;;;;;;;1.80;1.17;;;13.40;99.90;;;;;;5050630;28;20224;-77
2024/04/05 06:59:17;;;;;;;1.60;1.50;;;13.50;99.90;;;;;;5050775;28;20475;-77
2024/04/05 07:01:43;;;;;;;1.80;1.47;;;13.50;99.90;;;;;;5050399;28;20209;-77
2024/04/05 07:04:11;;;;;;;2.70;1.37;;;13.60;99.90;;;;;;5050121;28;20540;-77
2024/04/05 07:06:38;;;;;;;1.60;1.10;;;13.70;99.90;;;;;;5050666;28;20287;-77
2024/04/05 07:09:08;;;;;;;1.60;1.30;;;13.90;99.90;;;;;;5050445;28;20487;-77
2024/04/05 07:11:35;;;;;;;2.53;1.77;;;14.00;99.90;;;;;;5050364;28;20948;-77
2024/04/05 07:14:03;;;;;;;1.70;1.43;;;14.20;99.90;;;;;;5050475;28;20831;-77
2024/04/05 07:16:28;;;;;;;1.53;1.10;;;14.30;99.90;;;;;;5051269;28;20463;-77
2024/04/05 07:18:55;;;;;;;1.80;1.33;;;14.40;99.90;;;;;;5054785;28;20528;-77
2024/04/05 07:21:21;;;;;;;2.17;1.47;;;14.50;99.90;;;;;;5054469;28;20220;-77
2024/04/05 07:23:51;;;;;;;1.50;1.40;;;14.60;99.90;;;;;;5054602;28;20944;-77
2024/04/05 07:26:17;;;;;;;1.43;1.33;;;14.70;99.90;;;;;;5053027;28;20362;-77
2024/04/05 07:28:43;;;;;;;2.90;1.70;;;14.80;99.90;;;;;;5054418;28;20491;-77
2024/04/05 07:31:09;;;;;;;3.50;1.30;;;14.90;99.90;;;;;;5054104;28;20201;-77
2024/04/05 07:33:36;;;;;;;1.43;1.17;;;15.00;99.90;;;;;;5054024;28;20482;-77
2024/04/05 07:36:02;;;;;;;1.20;1.10;;;15.20;99.90;;;;;;5054600;28;20209;-77
2024/04/05 07:38:30;;;;;;;2.33;1.67;;;15.30;99.90;;;;;;5053878;28;20570;-78
2024/04/05 07:41:04;;;;;;;1.87;1.50;;;15.40;99.90;;;;;;5054135;28;20455;-78
2024/04/05 07:43:33;;;;;;;1.53;1.43;;;15.60;99.90;;;;;;5053890;28;20495;-77
2024/04/05 07:45:59;;;;;;;1.13;1.00;;;15.50;99.90;;;;;;5054844;28;20495;-77
2024/04/05 07:48:26;;;;;;;1.83;1.10;;;15.50;99.90;;;;;;5054134;28;20541;-77
2024/04/05 07:50:53;;;;;;;1.60;1.30;;;15.70;99.90;;;;;;5054740;28;20467;-78
2024/04/05 07:53:19;;;;;;;2.27;1.67;;;15.80;99.90;;;;;;5053964;28;20517;-77
2024/04/05 07:55:45;;;;;;;2.53;1.50;;;15.90;99.90;;;;;;5053645;28;20826;-78
2024/04/05 07:58:13;;;;;;;4.73;1.50;;;16.20;99.90;;;;;;5053568;28;20490;-77
2024/04/05 08:00:39;;;;;;;2.23;2.00;;;16.30;99.90;;;;;;5054002;28;20464;-77
2024/04/05 08:03:06;;;;;;;2.10;1.43;;;16.60;99.90;;;;;;5053834;28;20849;-77
2024/04/05 08:05:34;;;;;;;4.33;1.30;;;16.80;99.90;;;;;;5053214;28;20236;-77
2024/04/05 08:08:01;;;;;;;2.60;1.27;;;17.30;99.90;;;;;;5053633;28;20483;-77
2024/04/05 08:10:27;;;;;;;1.20;1.00;;;17.50;99.90;;;;;;5054035;28;20491;-74
2024/04/05 08:12:53;;;;;;;1.87;1.43;;;17.70;99.90;;;;;;5053880;28;20547;-75
2024/04/05 08:15:20;;;;;;;1.80;1.40;;;18.00;99.90;;;;;;5053322;28;20677;-75
2024/04/05 08:17:47;;;;;;;2.00;1.47;;;18.40;99.90;;;;;;5053677;28;20561;-75
2024/04/05 08:20:13;;;;;;;2.40;1.33;;;18.70;99.90;;;;;;5053411;28;20471;-75
2024/04/05 08:22:39;;;;;;;3.67;1.60;;;19.20;99.90;;;;;;5053334;28;20467;-76
2024/04/05 08:25:07;;;;;;;4.17;1.63;;;19.50;99.90;;;;;;5053357;28;20217;-76
2024/04/05 08:27:34;;;;;;;1.47;1.30;;;19.70;99.90;;;;;;5053063;28;20482;-76
2024/04/05 08:30:00;;;;;;;1.73;1.50;;;19.90;99.90;;;;;;5052869;28;20470;-76
2024/04/05 08:32:28;;;;;;;1.57;1.27;;;20.20;99.90;;;;;;5053018;28;20471;-76
2024/04/05 08:34:55;;;;;;;2.13;1.40;;;20.40;99.90;;;;;;5052921;28;20550;-76
2024/04/05 08:37:22;;;;;;;2.30;1.60;;;20.80;99.90;;;;;;5052911;28;20487;-76
2024/04/05 08:39:48;;;;;;;2.00;1.40;;;21.10;99.90;;;;;;5053219;28;21012;-76
2024/04/05 08:42:17;;;;;;;2.43;1.20;;;21.00;99.90;;;;;;5053040;28;20543;-77
2024/04/05 08:44:45;;;;;;;4.60;1.37;;;20.90;99.90;;;;;;5052791;28;20607;-76
2024/04/05 08:47:12;;;;;;;1.33;1.23;;;21.10;99.90;;;;;;5053292;28;20578;-76
2024/04/05 08:49:39;;;;;;;1.90;1.27;;;21.30;99.90;;;;;;5052657;28;20502;-76
2024/04/05 08:52:06;;;;;;;1.40;1.00;;;21.50;99.90;;;;;;5052762;28;20503;-76
2024/04/05 08:54:33;;;;;;;1.27;1.17;;;21.70;99.90;;;;;;5052396;28;20464;-76
2024/04/05 08:57:01;;;;;;;1.50;1.40;;;21.50;99.90;;;;;;5052948;28;20803;-76
2024/04/05 08:59:28;;;;;;;1.90;1.10;;;21.40;99.90;;;;;;5052662;28;20843;-76
2024/04/05 09:01:58;;;;;;;2.80;1.33;;;21.30;99.90;;;;;;5052760;28;20513;-76
2024/04/05 09:04:25;;;;;;;1.27;1.00;;;21.20;99.90;;;;;;5052278;28;20487;-76
2024/04/05 09:06:53;;;;;;;1.80;1.27;;;21.50;99.90;;;;;;5052823;28;20569;-76
2024/04/05 09:09:25;;;;;;;1.30;1.20;;;21.80;99.90;;;;;;5052608;28;20468;-76
2024/04/05 09:12:00;;;;;;;3.27;1.10;;;22.50;99.90;;;;;;5052652;28;20464;-76
2024/04/05 09:14:25;;;;;;;1.30;0.90;;;23.50;99.90;;;;;;5052224;28;20465;-76
2024/04/05 09:16:53;;;;;;;1.10;1.00;;;24.40;99.90;;;;;;5052406;28;20492;-76
2024/04/05 09:19:22;;;;;;;2.10;1.30;;;25.20;99.90;;;;;;5052398;28;20213;-76
2024/04/05 09:21:49;;;;;;;1.70;1.30;;;25.50;99.90;;;;;;5052464;28;20476;-77
2024/04/05 09:24:16;;;;;;;1.57;1.30;;;25.10;99.90;;;;;;5052717;28;20490;-76
2024/04/05 09:26:43;;;;;;;1.43;1.33;;;24.90;99.90;;;;;;5053214;28;20545;-77
2024/04/05 09:29:12;;;;;;;2.00;1.60;;;24.80;99.90;;;;;;5052738;28;20464;-76
2024/04/05 09:31:39;;;;;;;1.40;1.27;;;25.00;99.90;;;;;;5052147;28;20471;-77
2024/04/05 09:34:06;;;;;;;1.40;1.30;;;24.80;99.90;;;;;;5056292;28;20948;-76
2024/04/05 09:36:34;;;;;;;2.60;1.13;;;24.40;99.90;;;;;;5067217;28;20817;-76
2024/04/05 09:39:02;;;;;;;1.50;1.10;;;24.00;99.90;;;;;;5067533;28;20468;-76
2024/04/05 09:41:33;;;;;;;1.70;1.20;;;24.10;99.90;;;;;;5063448;28;20466;-76
2024/04/05 09:44:01;;;;;;;1.70;1.10;;;24.60;99.90;;;;;;5060354;28;20487;-76
2024/04/05 09:46:29;;;;;;;1.50;1.40;;;25.50;99.90;;;;;;5055527;28;20478;-77
2024/04/05 09:48:55;;;;;;;2.20;1.00;;;26.00;99.50;;;;;;5051998;28;20459;-77
2024/04/05 09:51:26;;;;;;;1.77;1.00;;;25.40;99.00;;;;;;5051576;28;20467;-76
2024/04/05 09:53:53;;;;;;;1.20;1.10;;;24.80;99.80;;;;;;5051626;28;20697;-77
2024/04/05 09:56:25;;;;;;;2.37;1.33;;;25.10;99.40;;;;;;5051808;28;20481;-77
2024/04/05 09:58:54;;;;;;;1.00;0.90;;;25.60;98.20;;;;;;5052224;28;20485;-76
2024/04/05 10:01:21;;;;;;;1.20;0.97;;;25.00;97.90;;;;;;5051362;28;20490;-76
2024/04/05 10:03:47;;;;;;;1.30;1.10;;;24.60;97.20;;;;;;5051150;28;20456;-76
2024/04/05 10:06:15;;;;;;;2.07;1.00;;;24.30;97.80;;;;;;5051591;28;20475;-76
2024/04/05 10:08:42;;;;;;;1.53;1.20;;;24.80;98.00;;;;;;5051056;28;20468;-76
2024/04/05 10:11:12;;;;;;;1.87;1.10;;;24.90;97.20;;;;;;5051291;28;20482;-76
2024/04/05 10:13:38;;;;;;;1.30;0.93;;;24.90;97.00;;;;;;5050899;28;20459;-76
2024/04/05 10:16:08;;;;;;;1.10;0.80;;;25.70;97.20;;;;;;5051392;28;20470;-77
2024/04/05 10:18:37;;;;;;;1.57;1.07;;;25.80;95.90;;;;;;5050881;28;20537;-76
2024/04/05 10:21:08;;;;;;;2.23;1.17;;;25.20;95.20;;;;;;5051126;28;20467;-76
2024/04/05 10:23:34;;;;;;;2.23;1.00;;;24.20;95.90;;;;;;5050684;28;21024;-76
2024/04/05 10:26:02;;;;;;;1.30;0.90;;;24.70;96.40;;;;;;5051241;28;20475;-77
2024/04/05 10:28:28;;;;;;;1.33;1.20;;;26.00;95.20;;;;;;5050885;28;20476;-77
2024/04/05 10:30:56;;;;;;;1.47;0.90;;;26.20;94.60;;;;;;5051135;28;20496;-76
2024/04/05 10:33:23;;;;;;;1.20;1.07;;;26.20;93.90;;;;;;5051280;28;20513;-76
2024/04/05 10:35:50;;;;;;;1.30;1.10;;;26.40;93.50;;;;;;5046990;28;20468;-76
2024/04/05 10:38:16;;;;;;;2.17;1.00;;;26.70;93.40;;;;;;5046633;28;20484;-76
2024/04/05 10:40:44;;;;;;;1.10;1.00;;;26.90;92.60;;;;;;5050753;28;20956;-76
2024/04/05 10:43:11;;;;;;;1.20;1.07;;;26.20;92.90;;;;;;5050768;28;20487;-77
2024/04/05 10:45:38;;;;;;;1.03;0.93;;;25.70;93.70;;;;;;5050250;28;20526;-77
2024/04/05 10:48:05;;;;;;;2.03;0.90;;;25.40;94.40;;;;;;5050879;28;20482;-76
2024/04/05 10:50:37;;;;;;;1.63;0.80;;;25.10;93.70;;;;;;5050625;28;20551;-77
2024/04/05 10:53:03;;;;;;;1.83;1.10;;;24.60;94.10;;;;;;5050475;28;20464;-76
2024/04/05 10:55:30;;;;;;;1.67;1.30;;;24.40;94.20;;;;;;5050366;28;20999;-77
2024/04/05 10:57:56;;;;;;;1.10;0.87;;;24.60;93.60;;;;;;5050621;28;20487;-76
2024/04/05 11:00:23;;;;;;;1.47;1.00;;;24.10;93.40;;;;;;5050748;28;20848;-76
2024/04/05 11:02:50;;;;;;;1.37;1.27;;;24.00;94.50;;;;;;5050712;28;20213;-76
2024/04/05 11:05:21;;;;;;;1.67;1.00;;;24.00;94.50;;;;;;5045673;28;20489;-76
2024/04/05 11:07:58;;;;;;;1.10;0.90;;;24.20;93.80;;;;;;5050348;28;20315;-76
2024/04/05 11:10:29;;;;;;;1.63;1.10;;;24.50;93.50;;;;;;5046914;28;20990;-76
2024/04/05 11:12:54;;;;;;;1.10;1.00;;;24.50;94.20;;;;;;5050865;28;20447;-76
2024/04/05 11:15:22;;;;;;;1.10;1.00;;;24.20;93.60;;;;;;5050553;28;20462;-76
2024/04/05 11:17:57;;;;;;;1.30;1.07;;;23.50;93.60;;;;;;5050139;28;20225;-76
2024/04/05 11:20:26;;;;;;;1.67;1.20;;;23.20;94.10;;;;;;5047237;28;20466;-76
2024/04/05 11:22:56;;;;;;;1.63;1.00;;;23.00;94.20;;;;;;5050049;28;20482;-76
2024/04/05 11:25:22;;;;;;;1.50;1.03;;;22.50;94.80;;;;;;5050323;28;20859;-76
2024/04/05 11:27:48;;;;;;;1.00;0.90;;;22.40;94.50;;;;;;5050050;28;20483;-77
2024/04/05 11:30:15;;;;;;;1.90;0.90;;;22.30;95.00;;;;;;5050394;28;20470;-76
2024/04/05 11:32:42;;;;;;;1.20;1.00;;;22.50;95.10;;;;;;5050114;28;20201;-76
2024/04/05 11:35:12;;;;;;;1.73;0.90;;;22.70;94.40;;;;;;5050072;28;20732;-76
2024/04/05 11:37:38;;;;;;;1.50;1.03;;;22.90;95.40;;;;;;5050052;28;20928;-76
2024/04/05 11:40:09;;;;;;;1.07;0.97;;;23.00;95.20;;;;;;5050369;28;20467;-76
2024/04/05 11:42:36;;;;;;;1.50;1.10;;;22.90;95.10;;;;;;5049891;28;20498;-76
2024/04/05 11:45:03;;;;;;;1.37;0.97;;;22.60;95.10;;;;;;5049952;28;20484;-76
2024/04/05 11:47:28;;;;;;;1.23;0.90;;;22.30;95.10;;;;;;5050184;28;20487;-76
2024/04/05 11:49:55;;;;;;;1.67;1.10;;;22.30;95.20;;;;;;5049728;28;20467;-76
2024/04/05 11:52:21;;;;;;;1.23;0.97;;;22.00;95.20;;;;;;5050211;28;20213;-76
2024/04/05 11:54:47;;;;;;;1.00;0.90;;;21.90;95.70;;;;;;5049840;28;20569;-76
2024/04/05 11:57:16;;;;;;;1.13;1.00;;;21.90;95.80;;;;;;5050125;28;20282;-76
2024/04/05 11:59:43;;;;;;;1.10;1.00;;;21.90;95.60;;;;;;5050205;28;20513;-76
2024/04/05 12:02:10;;;;;;;1.37;0.87;;;21.90;95.90;;;;;;5050687;28;20460;-76
2024/04/05 12:04:37;;;;;;;2.57;1.20;;;21.80;95.70;;;;;;5052062;28;20479;-76
2024/04/05 12:07:04;;;;;;;1.10;1.00;;;21.60;96.60;;;;;;5053852;28;20526;-77
2024/04/05 12:09:30;;;;;;;1.50;1.00;;;21.50;96.60;;;;;;5053804;28;20558;-76
2024/04/05 12:11:56;;;;;;;1.60;1.10;;;21.60;96.70;;;;;;5053509;28;20459;-77
2024/04/05 12:14:24;;;;;;;1.07;0.90;;;21.70;96.30;;;;;;5053772;28;20463;-77
2024/04/05 12:16:50;;;;;;;1.30;1.20;;;22.10;95.90;;;;;;5053385;28;20484;-77
2024/04/05 12:19:17;;;;;;;2.50;1.20;;;22.60;95.50;;;;;;5053787;28;20513;-77
2024/04/05 12:21:43;;;;;;;3.53;1.03;;;22.70;95.10;;;;;;5053174;28;20205;-77
2024/04/05 12:24:09;;;;;;;1.17;0.83;;;23.10;95.40;;;;;;5053610;28;20463;-77
2024/04/05 12:26:36;;;;;;;1.67;1.00;;;23.90;95.00;;;;;;5053310;28;20221;-77
2024/04/05 12:29:02;;;;;;;1.10;0.90;;;24.00;94.50;;;;;;5056941;28;20916;-76
2024/04/05 12:31:30;;;;;;;1.03;0.90;;;23.80;94.40;;;;;;5055187;28;20497;-76
2024/04/05 12:33:57;;;;;;;1.67;1.10;;;24.00;94.70;;;;;;5063275;28;20475;-76
2024/04/05 12:36:23;;;;;;;1.20;1.03;;;24.20;94.30;;;;;;5054979;28;20456;-76
2024/04/05 12:38:56;;;;;;;1.73;1.10;;;24.40;95.00;;;;;;5063239;28;20459;-76
2024/04/05 12:41:23;;;;;;;2.30;1.00;;;24.60;94.40;;;;;;5049997;28;20511;-76
2024/04/05 12:43:50;;;;;;;1.87;1.50;;;24.50;93.70;;;;;;5055698;28;20468;-76
2024/04/05 12:46:16;;;;;;;1.60;1.20;;;24.00;94.10;;;;;;5049087;28;20491;-76